Time;durP1;ratioP1;P1;durP2;ratioP2;P2;SDS_P1;SDS_P2;PMS_P1;PMS_P2;Temp;Humidity;BMP_temperature;BMP_pressure;BME280_temperature;BME280_humidity;BME280_pressure;Samples;Min_cycle;Max_cycle;Signal;HPM_P1;HPM_P2
2021/03/31 00:01:31;;;;;;;13.57;5.82;;;12.90;99.90;;;;;;5072349;28;20045;-69
2021/03/31 00:03:57;;;;;;;16.13;5.68;;;12.60;99.90;;;;;;5071672;28;20112;-68
2021/03/31 00:06:23;;;;;;;17.00;6.07;;;12.60;99.30;;;;;;5070874;28;20493;-68
2021/03/31 00:08:49;;;;;;;15.18;6.90;;;12.60;99.90;;;;;;5072512;28;20051;-68
2021/03/31 00:11:16;;;;;;;14.90;5.95;;;12.70;99.90;;;;;;5071180;28;20431;-68
2021/03/31 00:13:42;;;;;;;11.98;6.25;;;12.70;99.90;;;;;;5071458;28;20159;-68
2021/03/31 00:16:08;;;;;;;14.50;5.45;;;12.60;99.90;;;;;;5071374;28;20119;-68
2021/03/31 00:18:34;;;;;;;14.48;5.93;;;12.60;99.90;;;;;;5072537;28;20052;-68
2021/03/31 00:21:01;;;;;;;11.13;5.32;;;12.60;98.80;;;;;;5072511;28;20114;-68
2021/03/31 00:23:29;;;;;;;14.55;6.15;;;12.50;99.90;;;;;;5072408;28;20024;-68
2021/03/31 00:25:56;;;;;;;12.75;5.45;;;12.50;99.90;;;;;;5071185;28;20115;-68
2021/03/31 00:28:22;;;;;;;11.55;5.75;;;12.40;99.10;;;;;;5072335;28;20035;-67
2021/03/31 00:30:50;;;;;;;11.32;4.78;;;12.40;99.90;;;;;;5072412;28;20036;-67
2021/03/31 00:33:17;;;;;;;11.55;5.00;;;12.30;99.00;;;;;;5072319;28;20024;-68
2021/03/31 00:35:43;;;;;;;11.13;5.30;;;12.00;99.90;;;;;;5071278;28;20035;-67
2021/03/31 00:38:09;;;;;;;13.77;5.18;;;11.90;99.70;;;;;;5072405;28;20021;-67
2021/03/31 00:40:42;;;;;;;13.18;6.38;;;11.90;99.90;;;;;;5071839;28;20386;-67
2021/03/31 00:43:09;;;;;;;15.98;7.40;;;11.90;99.90;;;;;;5071983;28;20024;-66
2021/03/31 00:45:35;;;;;;;15.18;6.82;;;11.90;99.90;;;;;;5070908;28;20036;-69
2021/03/31 00:48:01;;;;;;;15.40;6.90;;;11.80;99.90;;;;;;5071005;28;20112;-67
2021/03/31 00:50:28;;;;;;;12.07;5.75;;;11.30;99.90;;;;;;5070985;28;20119;-66
2021/03/31 00:52:55;;;;;;;15.07;6.75;;;11.20;99.90;;;;;;5072239;28;20044;-67
2021/03/31 00:55:26;;;;;;;13.48;7.00;;;11.30;99.90;;;;;;5070549;28;20033;-67
2021/03/31 00:57:53;;;;;;;14.57;5.78;;;11.30;99.90;;;;;;5071098;28;20056;-67
2021/03/31 01:00:20;;;;;;;14.30;6.45;;;10.80;99.90;;;;;;5070558;28;20040;-67
2021/03/31 01:02:46;;;;;;;12.20;5.57;;;11.00;99.90;;;;;;5070980;28;20036;-66
2021/03/31 01:05:24;;;;;;;12.98;6.80;;;11.20;99.90;;;;;;5071590;28;20051;-67
2021/03/31 01:07:51;;;;;;;14.13;6.20;;;11.20;99.90;;;;;;5071836;28;20465;-67
2021/03/31 01:10:22;;;;;;;12.55;6.22;;;11.10;99.90;;;;;;5071563;28;20060;-68
2021/03/31 01:13:24;;;;;;;14.38;6.32;;;11.20;99.90;;;;;;5070632;28;20553;-67
2021/03/31 01:16:30;;;;;;;15.50;6.13;;;11.30;99.90;;;;;;5071968;28;20485;-67
2021/03/31 01:19:13;;;;;;;9.77;5.80;;;11.40;99.90;;;;;;5070813;28;20520;-67
2021/03/31 01:22:06;;;;;;;14.93;6.22;;;11.60;99.60;;;;;;5071753;28;20037;-68
2021/03/31 01:25:06;;;;;;;10.98;6.13;;;11.40;99.90;;;;;;5071770;28;20033;-67
2021/03/31 01:28:14;;;;;;;18.50;8.07;;;11.50;99.90;;;;;;5074601;28;20405;-67
2021/03/31 01:30:53;;;;;;;15.85;5.85;;;11.50;99.90;;;;;;5072550;28;20496;-67
2021/03/31 01:34:03;;;;;;;46.63;7.57;;;11.50;99.70;;;;;;5075430;28;20036;-67
2021/03/31 01:36:31;;;;;;;13.63;6.88;;;11.50;99.90;;;;;;5069431;28;20169;-68
2021/03/31 01:39:04;;;;;;;13.40;6.70;;;11.50;99.90;;;;;;5074361;28;20040;-67
2021/03/31 01:41:33;;;;;;;15.38;6.90;;;11.40;99.90;;;;;;5075474;28;20033;-67
2021/03/31 01:44:02;;;;;;;12.52;5.75;;;11.30;99.90;;;;;;5074339;28;20027;-67
2021/03/31 01:46:31;;;;;;;12.25;5.60;;;10.90;99.90;;;;;;5073797;28;20082;-66
2021/03/31 01:49:00;;;;;;;14.50;7.07;;;11.10;99.90;;;;;;5073991;28;20029;-67
2021/03/31 01:51:29;;;;;;;16.33;7.65;;;11.00;99.90;;;;;;5075538;28;20028;-67
2021/03/31 01:53:55;;;;;;;19.55;7.75;;;11.10;99.90;;;;;;5075312;28;20111;-67
2021/03/31 01:56:24;;;;;;;13.43;7.00;;;11.00;99.90;;;;;;5073582;28;20514;-68
2021/03/31 01:58:52;;;;;;;18.50;7.88;;;11.00;99.90;;;;;;5074052;28;20056;-67
2021/03/31 02:01:21;;;;;;;16.98;7.57;;;10.90;99.90;;;;;;5073897;28;20035;-67
2021/03/31 02:03:50;;;;;;;12.93;6.82;;;10.90;99.90;;;;;;5073824;28;20060;-67
2021/03/31 02:06:17;;;;;;;13.45;7.03;;;10.80;99.90;;;;;;5073422;28;20048;-66
2021/03/31 02:08:44;;;;;;;18.13;7.82;;;10.80;99.90;;;;;;5073727;28;20073;-66
2021/03/31 02:11:12;;;;;;;17.92;7.40;;;10.80;99.90;;;;;;5073797;28;20067;-67
2021/03/31 02:13:39;;;;;;;23.10;7.85;;;10.80;99.90;;;;;;5056659;28;20067;-67
2021/03/31 02:16:05;;;;;;;13.95;7.00;;;10.70;99.90;;;;;;5074610;28;20119;-67
2021/03/31 02:18:35;;;;;;;14.32;7.05;;;10.70;99.90;;;;;;5073534;28;20120;-67
2021/03/31 02:21:01;;;;;;;12.50;7.22;;;10.60;99.90;;;;;;5073343;28;20028;-67
2021/03/31 02:23:28;;;;;;;12.75;6.65;;;10.50;99.90;;;;;;5073543;28;20417;-67
2021/03/31 02:25:55;;;;;;;15.68;6.88;;;10.60;99.90;;;;;;5056914;28;20044;-67
2021/03/31 02:28:21;;;;;;;12.05;6.43;;;10.60;99.90;;;;;;5056501;28;20104;-67
2021/03/31 02:30:47;;;;;;;15.30;6.78;;;10.60;99.90;;;;;;5074651;28;20041;-67
2021/03/31 02:33:14;;;;;;;13.02;5.43;;;10.50;99.90;;;;;;5074565;28;20485;-67
2021/03/31 02:35:42;;;;;;;15.93;6.47;;;10.30;99.90;;;;;;5074114;28;20504;-67
2021/03/31 02:38:15;;;;;;;18.92;6.40;;;10.30;99.90;;;;;;5072024;28;20031;-68
2021/03/31 02:40:49;;;;;;;13.27;5.68;;;10.40;99.90;;;;;;5073193;28;20554;-68
2021/03/31 02:43:17;;;;;;;16.98;6.50;;;10.30;99.90;;;;;;5072994;28;20532;-67
2021/03/31 02:45:50;;;;;;;12.10;6.80;;;10.20;99.90;;;;;;5072994;28;20035;-67
2021/03/31 02:48:17;;;;;;;15.82;6.57;;;10.10;99.90;;;;;;5073203;28;20027;-67
2021/03/31 02:50:46;;;;;;;11.70;6.53;;;10.10;99.90;;;;;;5074410;28;20035;-68
2021/03/31 02:53:15;;;;;;;14.80;7.20;;;10.00;99.90;;;;;;5072942;28;20024;-67
2021/03/31 02:55:41;;;;;;;12.27;6.25;;;9.90;99.90;;;;;;5072365;28;20063;-67
2021/03/31 02:58:10;;;;;;;13.02;6.30;;;9.90;99.90;;;;;;5073909;28;20033;-67
2021/03/31 03:00:36;;;;;;;15.27;6.28;;;9.80;99.90;;;;;;5073896;28;20050;-67
2021/03/31 03:03:04;;;;;;;16.83;5.85;;;9.90;99.90;;;;;;5073801;28;20056;-67
2021/03/31 03:05:30;;;;;;;12.15;6.22;;;9.80;99.90;;;;;;5055504;28;20496;-67
2021/03/31 03:07:57;;;;;;;13.93;6.68;;;9.80;99.90;;;;;;5072637;28;20054;-67
2021/03/31 03:10:23;;;;;;;13.68;6.75;;;9.60;99.90;;;;;;5055977;28;20029;-67
2021/03/31 03:12:55;;;;;;;11.57;6.07;;;9.40;99.90;;;;;;5073800;28;20056;-68
2021/03/31 03:15:26;;;;;;;13.82;6.00;;;9.60;99.90;;;;;;5073688;28;20086;-67
2021/03/31 03:17:52;;;;;;;13.35;5.93;;;9.70;99.90;;;;;;5073714;28;20059;-67
2021/03/31 03:20:19;;;;;;;8.02;5.03;;;9.70;99.90;;;;;;5055322;28;20055;-67
2021/03/31 03:22:50;;;;;;;9.00;4.90;;;9.80;99.90;;;;;;5073517;28;20029;-67
2021/03/31 03:25:24;;;;;;;12.98;5.88;;;9.90;99.90;;;;;;5055632;28;20382;-67
2021/03/31 03:27:51;;;;;;;10.75;6.20;;;10.00;99.90;;;;;;5038892;28;20029;-67
2021/03/31 03:30:20;;;;;;;9.75;6.22;;;9.90;99.90;;;;;;5072291;28;20107;-66
2021/03/31 03:32:51;;;;;;;11.50;5.53;;;9.80;99.90;;;;;;5072964;28;20032;-67
2021/03/31 03:35:27;;;;;;;17.30;5.68;;;9.80;99.90;;;;;;5073168;28;20044;-67
2021/03/31 03:37:54;;;;;;;15.50;5.93;;;9.80;99.90;;;;;;5073457;28;20043;-68
2021/03/31 03:40:25;;;;;;;13.15;5.07;;;9.90;99.90;;;;;;5073342;28;20097;-67
2021/03/31 03:42:52;;;;;;;;;;;9.90;99.90;;;;;;5073334;28;20025;-67
2021/03/31 03:45:23;;;;;;;14.23;5.90;;;10.00;99.90;;;;;;5073045;28;20411;-66
2021/03/31 03:47:49;;;;;;;10.52;5.30;;;10.00;99.90;;;;;;5073098;28;20039;-67
2021/03/31 03:50:16;;;;;;;13.93;5.85;;;9.80;99.90;;;;;;5070099;28;20123;-67
2021/03/31 03:52:49;;;;;;;20.52;6.80;;;9.70;99.90;;;;;;5072198;28;20043;-66
2021/03/31 03:55:19;;;;;;;10.98;6.00;;;9.70;99.90;;;;;;5066444;28;20029;-65
2021/03/31 03:57:45;;;;;;;15.93;5.35;;;9.00;99.90;;;;;;5093249;28;20036;-65
2021/03/31 04:00:21;;;;;;;12.85;6.25;;;9.10;99.90;;;;;;5091545;28;20029;-67
2021/03/31 04:02:54;;;;;;;10.35;5.55;;;9.30;99.90;;;;;;5092615;28;20544;-67
2021/03/31 04:05:22;;;;;;;16.50;6.30;;;9.30;99.90;;;;;;5076494;28;20063;-67
2021/03/31 04:07:48;;;;;;;13.63;5.93;;;9.40;99.90;;;;;;5071399;28;20060;-66
2021/03/31 04:10:17;;;;;;;11.10;5.20;;;9.40;99.90;;;;;;5066141;28;20067;-66
2021/03/31 04:12:44;;;;;;;12.40;6.38;;;9.40;99.90;;;;;;5061073;28;20024;-67
2021/03/31 04:15:12;;;;;;;15.52;6.50;;;9.30;99.90;;;;;;5061514;28;20112;-67
2021/03/31 04:17:41;;;;;;;12.40;6.13;;;9.20;99.90;;;;;;5071326;28;20047;-67
2021/03/31 04:20:14;;;;;;;14.13;4.88;;;9.20;99.90;;;;;;5061937;28;20082;-67
2021/03/31 04:22:40;;;;;;;13.68;6.43;;;9.20;99.90;;;;;;5056716;28;20032;-67
2021/03/31 04:25:09;;;;;;;14.55;6.65;;;9.40;99.90;;;;;;5066721;28;20037;-67
2021/03/31 04:27:36;;;;;;;12.23;6.00;;;9.20;99.90;;;;;;5092596;28;20086;-67
2021/03/31 04:30:08;;;;;;;10.70;5.40;;;9.10;99.90;;;;;;5061716;28;20033;-66
2021/03/31 04:32:37;;;;;;;13.50;6.28;;;8.80;99.90;;;;;;5053261;28;20070;-65
2021/03/31 04:35:05;;;;;;;10.50;5.18;;;9.00;99.90;;;;;;5071446;28;20057;-65
2021/03/31 04:37:31;;;;;;;11.13;5.30;;;9.10;99.90;;;;;;5070756;28;20114;-66
2021/03/31 04:39:57;;;;;;;12.05;4.95;;;9.10;99.90;;;;;;5086981;28;20567;-65
2021/03/31 04:42:23;;;;;;;14.07;7.22;;;9.20;99.90;;;;;;5071764;28;20485;-65
2021/03/31 04:44:50;;;;;;;15.20;6.38;;;9.20;99.90;;;;;;5072110;28;20025;-65
2021/03/31 04:47:15;;;;;;;10.63;5.72;;;8.80;99.90;;;;;;5072144;28;20040;-66
2021/03/31 04:49:41;;;;;;;8.85;5.07;;;8.80;99.90;;;;;;5072065;28;20032;-65
2021/03/31 04:52:08;;;;;;;17.50;5.70;;;8.80;99.90;;;;;;5071984;28;20421;-64
2021/03/31 04:54:34;;;;;;;12.88;5.90;;;8.90;99.90;;;;;;5070746;28;20230;-65
2021/03/31 04:56:59;;;;;;;12.68;6.03;;;8.80;99.90;;;;;;5088835;28;20038;-64
2021/03/31 04:59:25;;;;;;;15.10;5.90;;;8.30;99.90;;;;;;5092082;28;20493;-65
2021/03/31 05:01:51;;;;;;;12.55;6.53;;;8.40;99.90;;;;;;5094074;28;20119;-65
2021/03/31 05:04:17;;;;;;;12.77;6.43;;;8.60;99.90;;;;;;5096319;28;20048;-65
2021/03/31 05:06:43;;;;;;;13.88;5.63;;;8.70;99.90;;;;;;5095870;28;20052;-66
2021/03/31 05:09:09;;;;;;;18.50;7.40;;;8.80;99.90;;;;;;5095096;28;20164;-67
2021/03/31 05:11:34;;;;;;;12.60;5.97;;;8.80;99.90;;;;;;5095864;28;20481;-67
2021/03/31 05:14:00;;;;;;;15.35;6.07;;;8.70;99.90;;;;;;5096272;28;20074;-67
2021/03/31 05:16:26;;;;;;;11.07;6.07;;;8.70;99.90;;;;;;5094798;28;20071;-68
2021/03/31 05:18:52;;;;;;;12.80;5.45;;;8.80;99.90;;;;;;5083468;28;20421;-66
2021/03/31 05:21:18;;;;;;;9.95;5.80;;;8.90;99.90;;;;;;5064149;28;20032;-67
2021/03/31 05:23:44;;;;;;;15.25;6.03;;;8.90;99.90;;;;;;5071037;28;20057;-67
2021/03/31 05:26:10;;;;;;;14.10;5.72;;;8.90;99.90;;;;;;5055495;28;20136;-68
2021/03/31 05:28:36;;;;;;;12.77;5.95;;;9.00;99.90;;;;;;5059517;28;20029;-69
2021/03/31 05:31:02;;;;;;;17.10;6.93;;;9.10;99.90;;;;;;5066607;28;20024;-70
2021/03/31 05:33:28;;;;;;;18.75;6.72;;;8.90;99.90;;;;;;5066347;28;20040;-68
2021/03/31 05:35:54;;;;;;;13.25;6.00;;;8.80;99.90;;;;;;5074316;28;20544;-69
2021/03/31 05:38:20;;;;;;;14.48;6.13;;;8.80;99.90;;;;;;5074872;28;20163;-68
2021/03/31 05:40:46;;;;;;;22.85;6.78;;;8.80;99.90;;;;;;5073923;28;20116;-67
2021/03/31 05:43:14;;;;;;;10.15;6.13;;;8.80;99.90;;;;;;5074290;28;20107;-66
2021/03/31 05:45:45;;;;;;;13.45;5.68;;;8.80;99.90;;;;;;5074069;28;20039;-67
2021/03/31 05:48:11;;;;;;;10.73;6.10;;;8.80;99.90;;;;;;5073954;28;20060;-66
2021/03/31 05:50:37;;;;;;;15.23;6.97;;;8.80;99.90;;;;;;5074836;28;20037;-67
2021/03/31 05:53:03;;;;;;;16.00;6.88;;;8.90;99.90;;;;;;5075390;28;20035;-67
2021/03/31 05:55:29;;;;;;;25.30;7.68;;;8.90;99.90;;;;;;5078181;28;20072;-68
2021/03/31 05:57:55;;;;;;;16.35;7.80;;;9.00;99.90;;;;;;5077104;28;20477;-65
2021/03/31 06:00:22;;;;;;;16.98;6.90;;;9.10;99.90;;;;;;5094131;28;20028;-67
2021/03/31 06:02:48;;;;;;;17.25;7.07;;;9.20;99.90;;;;;;5093572;28;20537;-67
2021/03/31 06:05:17;;;;;;;16.30;8.00;;;9.20;99.90;;;;;;5091345;28;20151;-67
2021/03/31 06:07:45;;;;;;;19.98;8.80;;;9.30;99.90;;;;;;5095014;28;20029;-68
2021/03/31 06:10:22;;;;;;;22.42;8.88;;;9.50;99.90;;;;;;5094009;28;20047;-68
2021/03/31 06:13:02;;;;;;;23.55;10.18;;;9.60;99.90;;;;;;5094842;28;20063;-68
2021/03/31 06:15:34;;;;;;;29.38;9.38;;;9.60;99.90;;;;;;5095054;28;20028;-68
2021/03/31 06:18:17;;;;;;;19.63;7.68;;;9.50;99.90;;;;;;5095186;28;20035;-67
2021/03/31 06:21:02;;;;;;;13.68;7.50;;;9.40;99.90;;;;;;5094794;28;20032;-69
2021/03/31 06:23:52;;;;;;;17.67;7.20;;;9.40;99.90;;;;;;5093528;28;20040;-68
2021/03/31 06:26:29;;;;;;;27.17;10.73;;;9.60;99.90;;;;;;5083689;28;20040;-69
2021/03/31 06:29:07;;;;;;;30.77;11.23;;;9.70;99.90;;;;;;5073220;28;20101;-68
2021/03/31 06:31:48;;;;;;;30.20;9.48;;;9.70;99.90;;;;;;5074377;28;20389;-68
2021/03/31 06:34:22;;;;;;;24.83;10.57;;;9.80;99.90;;;;;;5074481;28;20066;-68
2021/03/31 06:37:04;;;;;;;26.13;10.05;;;9.90;99.90;;;;;;5074355;28;20085;-68
2021/03/31 06:39:35;;;;;;;20.30;9.00;;;10.00;99.90;;;;;;5074128;28;20515;-67
2021/03/31 06:42:13;;;;;;;17.10;7.80;;;9.90;99.90;;;;;;5074164;28;20119;-69
2021/03/31 06:47:18;;;;;;;24.75;11.25;;;10.00;99.90;;;;;;5073946;28;20085;-68
2021/03/31 06:49:44;;;;;;;20.95;9.73;;;10.20;99.90;;;;;;5072662;28;20123;-66
2021/03/31 06:52:11;;;;;;;23.73;11.52;;;10.30;99.90;;;;;;5073001;28;20470;-68
2021/03/31 06:54:50;;;;;;;25.13;11.18;;;10.40;99.90;;;;;;5073689;28;20477;-67
2021/03/31 06:57:28;;;;;;;32.85;13.45;;;10.40;99.90;;;;;;5093076;28;20032;-66
2021/03/31 07:00:15;;;;;;;34.78;17.13;;;10.60;99.90;;;;;;5076251;28;20089;-66
2021/03/31 07:02:45;;;;;;;115.53;60.90;;;10.60;99.90;;;;;;5094009;28;20024;-66
2021/03/31 07:05:15;;;;;;;87.32;42.65;;;10.70;99.90;;;;;;5092104;28;20412;-68
2021/03/31 07:07:42;;;;;;;45.08;24.23;;;10.80;99.90;;;;;;5075828;28;20035;-67
2021/03/31 07:10:16;;;;;;;26.38;12.75;;;10.70;99.90;;;;;;5092577;28;20024;-68
2021/03/31 07:12:47;;;;;;;24.50;11.80;;;10.80;99.90;;;;;;5093813;28;20408;-67
2021/03/31 07:15:20;;;;;;;24.30;10.82;;;10.90;99.90;;;;;;5093899;28;20040;-67
2021/03/31 07:17:56;;;;;;;28.25;11.05;;;11.00;99.90;;;;;;5092476;28;20472;-67
2021/03/31 07:20:26;;;;;;;24.65;11.50;;;11.20;99.90;;;;;;5092143;28;20123;-66
2021/03/31 07:23:01;;;;;;;33.35;11.73;;;11.40;99.90;;;;;;5075702;28;20028;-68
2021/03/31 07:25:27;;;;;;;25.75;11.23;;;11.50;99.90;;;;;;5075852;28;20032;-66
2021/03/31 07:27:57;;;;;;;25.13;11.15;;;11.30;99.90;;;;;;5092332;28;20038;-67
2021/03/31 07:30:27;;;;;;;30.15;12.20;;;11.50;99.90;;;;;;5093640;28;20115;-67
2021/03/31 07:33:04;;;;;;;35.25;11.65;;;11.60;99.90;;;;;;5093415;28;20016;-66
2021/03/31 07:35:34;;;;;;;28.02;11.38;;;11.80;99.90;;;;;;5093566;28;20028;-67
2021/03/31 07:38:03;;;;;;;29.50;12.02;;;12.00;99.90;;;;;;5093226;28;20028;-67
2021/03/31 07:40:35;;;;;;;30.52;10.90;;;11.80;99.90;;;;;;5093360;28;20038;-67
2021/03/31 07:43:24;;;;;;;35.45;12.35;;;12.00;99.90;;;;;;5092103;28;20509;-67
2021/03/31 07:45:59;;;;;;;31.83;9.70;;;12.30;99.90;;;;;;5075282;28;20058;-68
2021/03/31 07:48:26;;;;;;;19.50;8.52;;;12.20;99.90;;;;;;5093340;28;20043;-67
2021/03/31 07:50:52;;;;;;;19.48;7.82;;;12.30;99.90;;;;;;5093193;28;20027;-67
2021/03/31 07:53:25;;;;;;;23.55;8.60;;;12.30;99.30;;;;;;5092768;28;20127;-67
2021/03/31 07:55:55;;;;;;;19.27;9.20;;;12.40;98.40;;;;;;5093038;28;20060;-67
2021/03/31 07:58:28;;;;;;;21.20;8.77;;;12.60;98.40;;;;;;5093200;28;20028;-65
2021/03/31 08:01:11;;;;;;;19.80;8.73;;;12.90;97.60;;;;;;5092889;28;20048;-67
2021/03/31 08:03:41;;;;;;;21.60;9.32;;;13.10;97.10;;;;;;5093141;28;20024;-67
2021/03/31 08:06:16;;;;;;;21.42;9.02;;;13.20;97.00;;;;;;5092651;28;20102;-67
2021/03/31 08:08:49;;;;;;;23.13;7.38;;;13.40;96.10;;;;;;5089532;28;20020;-67
2021/03/31 08:11:41;;;;;;;18.15;8.18;;;13.50;95.50;;;;;;5091380;28;20392;-67
2021/03/31 08:14:15;;;;;;;15.90;7.90;;;13.50;96.20;;;;;;5092422;28;20035;-67
2021/03/31 08:16:49;;;;;;;19.98;8.90;;;13.70;95.50;;;;;;5091516;28;20028;-67
2021/03/31 08:19:44;;;;;;;16.55;8.10;;;13.80;96.10;;;;;;5091624;28;20020;-68
2021/03/31 08:22:34;;;;;;;20.15;8.70;;;13.70;96.00;;;;;;5092081;28;20046;-68
2021/03/31 08:25:22;;;;;;;15.05;7.35;;;14.00;95.80;;;;;;5092223;28;20420;-68
2021/03/31 08:28:01;;;;;;;21.13;8.02;;;14.00;95.60;;;;;;5092528;28;20119;-67
2021/03/31 08:30:28;;;;;;;16.85;8.00;;;14.00;95.60;;;;;;5074529;28;20028;-67
2021/03/31 08:32:55;;;;;;;20.67;8.85;;;14.20;96.30;;;;;;5092484;28;20189;-67
2021/03/31 08:35:27;;;;;;;20.17;7.38;;;14.40;97.30;;;;;;5091987;28;20054;-67
2021/03/31 08:38:15;;;;;;;24.60;8.80;;;14.50;96.20;;;;;;5090849;28;20039;-67
2021/03/31 08:40:42;;;;;;;17.90;7.32;;;14.50;96.40;;;;;;5091400;28;20054;-68
2021/03/31 08:43:08;;;;;;;20.48;8.05;;;14.80;95.50;;;;;;5092100;28;20089;-67
2021/03/31 08:45:39;;;;;;;16.13;7.35;;;15.00;95.70;;;;;;5090568;28;20038;-67
2021/03/31 08:48:05;;;;;;;17.00;7.03;;;15.10;94.30;;;;;;5091006;28;20457;-67
2021/03/31 08:50:36;;;;;;;16.80;7.60;;;15.20;94.20;;;;;;5092422;28;20119;-66
2021/03/31 08:53:09;;;;;;;20.10;8.45;;;15.40;95.30;;;;;;5091990;28;20025;-66
2021/03/31 08:55:39;;;;;;;20.98;8.60;;;15.70;93.90;;;;;;5074200;28;20039;-66
2021/03/31 08:58:09;;;;;;;13.97;7.60;;;15.90;94.50;;;;;;5092374;28;20032;-68
2021/03/31 09:00:51;;;;;;;18.00;7.30;;;16.00;94.20;;;;;;5091980;28;20028;-66
2021/03/31 09:03:17;;;;;;;19.58;7.35;;;16.30;93.90;;;;;;5092213;28;20036;-66
2021/03/31 09:06:03;;;;;;;16.40;7.50;;;16.30;93.30;;;;;;5091686;28;20040;-67
2021/03/31 09:08:30;;;;;;;17.60;7.10;;;16.40;93.30;;;;;;5092000;28;20044;-67
2021/03/31 09:11:03;;;;;;;17.50;7.50;;;16.60;93.40;;;;;;5056984;28;20093;-67
2021/03/31 09:13:38;;;;;;;16.00;7.30;;;16.80;93.30;;;;;;5092185;28;20536;-68
2021/03/31 09:16:13;;;;;;;14.60;7.55;;;16.90;93.20;;;;;;5090433;28;20028;-67
2021/03/31 09:18:41;;;;;;;18.60;7.82;;;17.20;90.80;;;;;;5090950;28;20064;-67
2021/03/31 09:21:08;;;;;;;19.58;8.25;;;17.40;91.00;;;;;;5091983;28;20125;-67
2021/03/31 09:23:34;;;;;;;18.63;7.22;;;17.40;86.80;;;;;;5092114;28;20066;-68
2021/03/31 09:26:03;;;;;;;22.13;7.30;;;17.60;85.40;;;;;;5091706;28;20039;-67
2021/03/31 09:28:31;;;;;;;18.25;7.28;;;17.60;84.10;;;;;;5092025;28;20025;-67
2021/03/31 09:31:07;;;;;;;18.63;9.00;;;17.70;84.30;;;;;;5091782;28;20032;-66
2021/03/31 09:33:34;;;;;;;15.07;7.65;;;17.80;82.40;;;;;;5075225;28;20027;-66
2021/03/31 09:36:11;;;;;;;26.52;7.35;;;17.90;83.60;;;;;;5091618;28;20028;-68
2021/03/31 09:38:37;;;;;;;26.60;7.88;;;18.10;84.80;;;;;;5090306;28;20036;-67
2021/03/31 09:41:05;;;;;;;19.75;7.93;;;18.20;84.10;;;;;;5091660;28;20021;-67
2021/03/31 09:43:33;;;;;;;23.35;8.07;;;18.40;81.60;;;;;;5091849;28;20043;-66
2021/03/31 09:45:59;;;;;;;19.17;7.40;;;18.60;80.60;;;;;;5091448;28;20085;-67
2021/03/31 09:48:25;;;;;;;19.35;7.75;;;18.80;80.60;;;;;;5093157;28;20422;-66
2021/03/31 09:50:53;;;;;;;23.27;8.68;;;18.80;80.60;;;;;;5095494;28;20029;-66
2021/03/31 09:53:25;;;;;;;17.67;7.88;;;19.00;80.10;;;;;;5095472;28;20024;-67
2021/03/31 09:55:53;;;;;;;23.33;9.40;;;19.20;75.20;;;;;;5095134;28;20024;-66
2021/03/31 09:58:26;;;;;;;19.15;8.38;;;19.30;71.10;;;;;;5093908;28;20043;-65
2021/03/31 10:00:53;;;;;;;17.88;7.72;;;19.20;69.50;;;;;;5090782;28;20121;-66
2021/03/31 10:03:22;;;;;;;22.75;9.30;;;19.50;68.20;;;;;;5095374;28;20031;-66
2021/03/31 10:05:48;;;;;;;15.88;8.35;;;19.50;68.20;;;;;;5094796;28;20132;-75
2021/03/31 10:08:22;;;;;;;18.88;7.93;;;19.40;68.10;;;;;;5093646;28;20063;-66
2021/03/31 10:10:58;;;;;;;24.75;9.45;;;19.50;67.70;;;;;;5095156;28;20054;-67
2021/03/31 10:13:24;;;;;;;22.92;9.25;;;19.50;66.50;;;;;;5095265;28;20062;-65
2021/03/31 10:15:59;;;;;;;19.80;8.77;;;19.70;70.30;;;;;;5094896;28;20464;-66
2021/03/31 10:18:29;;;;;;;20.67;9.15;;;20.00;63.60;;;;;;5095086;28;20119;-66
2021/03/31 10:21:02;;;;;;;19.92;7.65;;;20.10;65.30;;;;;;5094399;28;20028;-66
2021/03/31 10:23:34;;;;;;;21.33;9.70;;;20.20;63.80;;;;;;5094911;28;20074;-66
2021/03/31 10:26:27;;;;;;;21.17;8.02;;;20.20;61.90;;;;;;5094727;28;20024;-64
2021/03/31 10:29:03;;;;;;;21.00;8.30;;;20.40;62.00;;;;;;5094691;28;20054;-65
2021/03/31 10:31:34;;;;;;;19.40;8.50;;;20.40;64.20;;;;;;5094712;28;20039;-65
2021/03/31 10:34:02;;;;;;;19.80;7.82;;;20.50;61.90;;;;;;5094526;28;20480;-64
2021/03/31 10:36:39;;;;;;;23.75;9.00;;;20.60;60.00;;;;;;5094339;28;20480;-64
2021/03/31 10:50:42;;;;;;;;;;;21.60;59.40;;;;;;5074326;28;20040;-64
2021/03/31 10:53:09;;;;;;;19.27;8.32;;;21.50;57.50;;;;;;5092701;28;20384;-66
2021/03/31 10:55:35;;;;;;;20.80;8.30;;;21.60;57.00;;;;;;5093973;28;20062;-67
2021/03/31 10:58:01;;;;;;;17.35;7.60;;;21.50;56.30;;;;;;5094052;28;20425;-67
2021/03/31 11:00:27;;;;;;;17.45;7.45;;;21.50;57.20;;;;;;5092934;28;20020;-67
2021/03/31 11:02:54;;;;;;;16.27;8.00;;;21.60;57.80;;;;;;5093937;28;20034;-67
2021/03/31 11:05:20;;;;;;;17.63;7.15;;;21.70;57.20;;;;;;5093761;28;20048;-68
2021/03/31 11:07:46;;;;;;;18.85;7.47;;;21.70;57.80;;;;;;5091146;28;20040;-67
2021/03/31 11:10:12;;;;;;;14.02;7.45;;;21.80;57.80;;;;;;5093354;28;20031;-68
2021/03/31 11:12:39;;;;;;;20.63;8.27;;;22.10;56.40;;;;;;5093753;28;20052;-68
2021/03/31 11:15:08;;;;;;;17.42;7.40;;;22.20;56.00;;;;;;5091736;28;20496;-69
2021/03/31 11:18:24;;;;;;;16.60;7.93;;;22.10;56.40;;;;;;5093729;28;20040;-67
2021/03/31 11:25:55;;;;;;;16.02;7.13;;;22.40;55.20;;;;;;5093408;28;20571;-67
2021/03/31 11:28:22;;;;;;;14.40;6.47;;;22.70;55.00;;;;;;5093651;28;20457;-67
2021/03/31 11:30:49;;;;;;;18.92;8.32;;;22.90;52.60;;;;;;5093450;28;20036;-67
2021/03/31 11:33:16;;;;;;;18.67;8.05;;;23.10;53.10;;;;;;5093222;28;20068;-67
2021/03/31 11:35:43;;;;;;;20.33;7.32;;;23.40;53.00;;;;;;5092394;28;20028;-67
2021/03/31 11:38:09;;;;;;;18.30;7.95;;;23.20;54.30;;;;;;5093150;28;20024;-67
2021/03/31 11:40:35;;;;;;;17.38;7.30;;;23.50;54.00;;;;;;5093053;28;20036;-66
2021/03/31 11:43:01;;;;;;;13.73;6.10;;;23.70;52.40;;;;;;5092984;28;20043;-67
2021/03/31 11:45:27;;;;;;;15.40;6.68;;;24.00;52.00;;;;;;5092018;28;20035;-67
2021/03/31 11:47:53;;;;;;;15.60;7.55;;;24.40;51.40;;;;;;5092402;28;20024;-67
2021/03/31 11:50:21;;;;;;;16.83;6.88;;;24.70;50.00;;;;;;5093163;28;20102;-67
2021/03/31 11:52:47;;;;;;;14.43;5.78;;;24.10;52.20;;;;;;5092259;28;20032;-67
2021/03/31 11:55:13;;;;;;;16.67;6.75;;;24.30;49.60;;;;;;5073552;28;20028;-66
2021/03/31 11:57:39;;;;;;;17.38;6.53;;;24.80;50.10;;;;;;5072796;28;20043;-67
2021/03/31 12:00:06;;;;;;;10.50;5.90;;;24.60;50.00;;;;;;5072625;28;20036;-67
2021/03/31 12:02:32;;;;;;;15.13;6.28;;;25.00;49.60;;;;;;5072531;28;20035;-66
2021/03/31 12:04:57;;;;;;;13.20;6.15;;;24.40;50.50;;;;;;5072046;28;20521;-67
2021/03/31 12:07:24;;;;;;;14.35;6.30;;;24.90;49.40;;;;;;5072673;28;20036;-67
2021/03/31 12:09:50;;;;;;;13.45;5.07;;;25.30;49.30;;;;;;5070714;28;20501;-66
2021/03/31 12:12:15;;;;;;;15.40;5.97;;;25.70;48.90;;;;;;5072246;28;20047;-66
2021/03/31 12:14:42;;;;;;;14.60;5.70;;;25.20;47.90;;;;;;5072199;28;20055;-66
2021/03/31 12:17:09;;;;;;;15.38;6.22;;;25.70;48.90;;;;;;5070694;28;20056;-66
2021/03/31 12:19:35;;;;;;;13.10;5.93;;;25.90;48.80;;;;;;5070798;28;20028;-67
2021/03/31 12:22:02;;;;;;;16.25;6.38;;;27.40;47.70;;;;;;5072163;28;20028;-67
2021/03/31 12:24:27;;;;;;;15.27;5.40;;;28.40;44.20;;;;;;5087850;28;20031;-67
2021/03/31 12:27:00;;;;;;;11.05;5.40;;;28.30;43.60;;;;;;5072026;28;20455;-67
2021/03/31 12:29:26;;;;;;;10.85;5.00;;;29.20;42.40;;;;;;5070853;28;20466;-67
2021/03/31 12:31:52;;;;;;;13.10;5.95;;;29.40;42.00;;;;;;5072346;28;20090;-67
2021/03/31 12:34:18;;;;;;;11.38;5.65;;;29.60;41.60;;;;;;5072184;28;20025;-66
2021/03/31 12:36:44;;;;;;;11.52;5.15;;;28.10;43.70;;;;;;5072346;28;20059;-66
2021/03/31 12:39:09;;;;;;;13.38;5.35;;;29.80;41.30;;;;;;5072236;28;20068;-66
2021/03/31 12:41:35;;;;;;;13.00;5.88;;;29.50;41.70;;;;;;5072098;28;20085;-66
2021/03/31 12:44:01;;;;;;;14.98;5.20;;;30.10;40.50;;;;;;5071853;28;20067;-65
2021/03/31 12:46:27;;;;;;;16.70;4.50;;;30.40;39.90;;;;;;5072162;28;20032;-66
2021/03/31 12:48:53;;;;;;;10.98;5.03;;;29.60;40.20;;;;;;5072230;28;20380;-65
2021/03/31 12:51:32;;;;;;;11.70;5.15;;;30.20;40.40;;;;;;5071767;28;20401;-66
2021/03/31 12:54:10;;;;;;;15.05;5.28;;;31.00;39.50;;;;;;5072042;28;20047;-66
2021/03/31 12:56:36;;;;;;;9.80;5.10;;;29.20;40.40;;;;;;5070718;28;20081;-66
2021/03/31 12:59:02;;;;;;;13.77;4.75;;;28.60;43.20;;;;;;5071649;28;20098;-66
2021/03/31 13:01:29;;;;;;;12.85;5.38;;;30.90;41.10;;;;;;5071933;28;20113;-66
2021/03/31 13:03:55;;;;;;;10.35;4.75;;;30.20;39.50;;;;;;5070841;28;20032;-67
2021/03/31 13:06:24;;;;;;;10.70;4.70;;;31.10;39.30;;;;;;5071478;28;20063;-67
2021/03/31 13:08:53;;;;;;;11.53;4.37;;;30.40;39.60;;;;;;5072112;28;20056;-67
2021/03/31 13:11:21;;;;;;;6.68;3.97;;;31.20;39.30;;;;;;5070186;28;20106;-66
2021/03/31 13:14:12;;;;;;;6.80;2.95;;;29.00;39.40;;;;;;5071752;28;20120;-66
2021/03/31 13:22:53;;;;;;;7.10;3.15;;;29.20;39.60;;;;;;5071686;28;20041;-66